sensor_id;sensor_type;location;lat;lon;timestamp;P1;durP1;ratioP1;P2;durP2;ratioP2
8656;SDS011;4366;50.764;7.184;2023-04-03T00:01:51;2.10;;;2.00;;
8656;SDS011;4366;50.764;7.184;2023-04-03T00:06:53;2.57;;;2.37;;
8656;SDS011;4366;50.764;7.184;2023-04-03T00:11:55;2.20;;;2.10;;
8656;SDS011;4366;50.764;7.184;2023-04-03T00:16:56;2.47;;;2.33;;
8656;SDS011;4366;50.764;7.184;2023-04-03T00:21:59;2.30;;;2.10;;
8656;SDS011;4366;50.764;7.184;2023-04-03T00:27:01;2.30;;;2.20;;
8656;SDS011;4366;50.764;7.184;2023-04-03T00:32:02;2.47;;;2.27;;
8656;SDS011;4366;50.764;7.184;2023-04-03T00:37:04;2.53;;;2.33;;
8656;SDS011;4366;50.764;7.184;2023-04-03T00:42:06;2.60;;;2.40;;
8656;SDS011;4366;50.764;7.184;2023-04-03T00:47:08;2.87;;;2.40;;
8656;SDS011;4366;50.764;7.184;2023-04-03T00:52:14;2.40;;;2.20;;
8656;SDS011;4366;50.764;7.184;2023-04-03T00:57:18;2.67;;;2.27;;
8656;SDS011;4366;50.764;7.184;2023-04-03T01:02:20;2.60;;;2.40;;
8656;SDS011;4366;50.764;7.184;2023-04-03T01:07:23;2.73;;;2.30;;
8656;SDS011;4366;50.764;7.184;2023-04-03T01:12:31;4.00;;;2.30;;
8656;SDS011;4366;50.764;7.184;2023-04-03T01:17:40;2.70;;;2.13;;
8656;SDS011;4366;50.764;7.184;2023-04-03T01:22:59;2.73;;;2.30;;
8656;SDS011;4366;50.764;7.184;2023-04-03T01:28:08;2.10;;;2.00;;
8656;SDS011;4366;50.764;7.184;2023-04-03T01:33:14;2.20;;;2.10;;
8656;SDS011;4366;50.764;7.184;2023-04-03T01:38:17;2.53;;;2.37;;
8656;SDS011;4366;50.764;7.184;2023-04-03T01:43:18;2.30;;;2.20;;
8656;SDS011;4366;50.764;7.184;2023-04-03T01:48:20;2.37;;;2.27;;
8656;SDS011;4366;50.764;7.184;2023-04-03T01:53:22;2.70;;;2.50;;
8656;SDS011;4366;50.764;7.184;2023-04-03T01:58:24;2.20;;;2.10;;
8656;SDS011;4366;50.764;7.184;2023-04-03T02:03:27;2.50;;;2.30;;
8656;SDS011;4366;50.764;7.184;2023-04-03T02:08:28;2.40;;;2.30;;
8656;SDS011;4366;50.764;7.184;2023-04-03T02:13:30;2.73;;;2.43;;
8656;SDS011;4366;50.764;7.184;2023-04-03T02:18:31;2.50;;;2.30;;
8656;SDS011;4366;50.764;7.184;2023-04-03T02:23:33;2.40;;;2.30;;
8656;SDS011;4366;50.764;7.184;2023-04-03T02:28:37;2.83;;;2.63;;
8656;SDS011;4366;50.764;7.184;2023-04-03T02:33:40;2.30;;;2.20;;
8656;SDS011;4366;50.764;7.184;2023-04-03T02:38:44;2.40;;;2.30;;
8656;SDS011;4366;50.764;7.184;2023-04-03T02:43:47;2.67;;;2.47;;
8656;SDS011;4366;50.764;7.184;2023-04-03T02:48:49;2.70;;;2.50;;
8656;SDS011;4366;50.764;7.184;2023-04-03T02:53:52;2.20;;;2.10;;
8656;SDS011;4366;50.764;7.184;2023-04-03T02:58:58;2.60;;;2.40;;
8656;SDS011;4366;50.764;7.184;2023-04-03T03:04:01;2.63;;;2.50;;
8656;SDS011;4366;50.764;7.184;2023-04-03T03:09:03;2.53;;;2.40;;
8656;SDS011;4366;50.764;7.184;2023-04-03T03:14:05;3.60;;;2.37;;
8656;SDS011;4366;50.764;7.184;2023-04-03T03:19:07;2.70;;;2.50;;
8656;SDS011;4366;50.764;7.184;2023-04-03T03:24:09;2.57;;;2.47;;
8656;SDS011;4366;50.764;7.184;2023-04-03T03:29:10;3.00;;;2.40;;
8656;SDS011;4366;50.764;7.184;2023-04-03T03:34:12;2.87;;;2.53;;
8656;SDS011;4366;50.764;7.184;2023-04-03T03:39:14;3.83;;;2.70;;
8656;SDS011;4366;50.764;7.184;2023-04-03T03:44:16;3.17;;;2.87;;
8656;SDS011;4366;50.764;7.184;2023-04-03T03:49:18;2.70;;;2.50;;
8656;SDS011;4366;50.764;7.184;2023-04-03T03:54:20;2.70;;;2.50;;
8656;SDS011;4366;50.764;7.184;2023-04-03T03:59:22;3.07;;;2.80;;
8656;SDS011;4366;50.764;7.184;2023-04-03T04:04:24;2.70;;;2.60;;
8656;SDS011;4366;50.764;7.184;2023-04-03T04:09:26;2.50;;;2.40;;
8656;SDS011;4366;50.764;7.184;2023-04-03T04:14:29;2.73;;;2.63;;
8656;SDS011;4366;50.764;7.184;2023-04-03T04:19:32;2.90;;;2.70;;
8656;SDS011;4366;50.764;7.184;2023-04-03T04:24:35;2.97;;;2.77;;
8656;SDS011;4366;50.764;7.184;2023-04-03T04:29:39;4.13;;;3.10;;
8656;SDS011;4366;50.764;7.184;2023-04-03T04:34:42;3.00;;;2.80;;
8656;SDS011;4366;50.764;7.184;2023-04-03T04:39:44;3.20;;;3.00;;
8656;SDS011;4366;50.764;7.184;2023-04-03T04:44:46;2.97;;;2.77;;
8656;SDS011;4366;50.764;7.184;2023-04-03T04:49:48;3.87;;;3.20;;
8656;SDS011;4366;50.764;7.184;2023-04-03T04:54:51;3.23;;;3.00;;
8656;SDS011;4366;50.764;7.184;2023-04-03T04:59:53;3.43;;;3.17;;
8656;SDS011;4366;50.764;7.184;2023-04-03T05:04:55;5.60;;;3.43;;
8656;SDS011;4366;50.764;7.184;2023-04-03T05:10:02;4.40;;;4.00;;
8656;SDS011;4366;50.764;7.184;2023-04-03T05:15:06;3.50;;;3.30;;
8656;SDS011;4366;50.764;7.184;2023-04-03T05:20:08;3.20;;;3.00;;
8656;SDS011;4366;50.764;7.184;2023-04-03T05:25:11;2.80;;;2.60;;
8656;SDS011;4366;50.764;7.184;2023-04-03T05:30:17;3.50;;;3.20;;
8656;SDS011;4366;50.764;7.184;2023-04-03T05:35:22;3.10;;;3.00;;
8656;SDS011;4366;50.764;7.184;2023-04-03T05:40:27;3.43;;;3.13;;
8656;SDS011;4366;50.764;7.184;2023-04-03T05:45:30;3.10;;;2.87;;
8656;SDS011;4366;50.764;7.184;2023-04-03T05:50:33;3.63;;;3.10;;
8656;SDS011;4366;50.764;7.184;2023-04-03T05:55:35;3.03;;;2.83;;
8656;SDS011;4366;50.764;7.184;2023-04-03T06:00:37;4.00;;;2.93;;
8656;SDS011;4366;50.764;7.184;2023-04-03T06:05:40;2.60;;;2.50;;
8656;SDS011;4366;50.764;7.184;2023-04-03T06:10:44;3.13;;;2.53;;
8656;SDS011;4366;50.764;7.184;2023-04-03T06:15:47;2.30;;;2.10;;
8656;SDS011;4366;50.764;7.184;2023-04-03T06:20:50;2.40;;;2.20;;
8656;SDS011;4366;50.764;7.184;2023-04-03T06:25:53;1.90;;;1.80;;
8656;SDS011;4366;50.764;7.184;2023-04-03T06:30:55;3.27;;;2.00;;
8656;SDS011;4366;50.764;7.184;2023-04-03T06:35:58;2.03;;;1.90;;
8656;SDS011;4366;50.764;7.184;2023-04-03T06:41:00;1.80;;;1.70;;
8656;SDS011;4366;50.764;7.184;2023-04-03T06:46:02;1.97;;;1.70;;
8656;SDS011;4366;50.764;7.184;2023-04-03T06:51:04;3.20;;;1.80;;
8656;SDS011;4366;50.764;7.184;2023-04-03T06:56:05;1.83;;;1.67;;
8656;SDS011;4366;50.764;7.184;2023-04-03T07:01:08;4.07;;;1.77;;
8656;SDS011;4366;50.764;7.184;2023-04-03T07:06:11;4.10;;;1.73;;
8656;SDS011;4366;50.764;7.184;2023-04-03T07:11:13;2.80;;;1.57;;
8656;SDS011;4366;50.764;7.184;2023-04-03T07:16:16;1.50;;;1.40;;
8656;SDS011;4366;50.764;7.184;2023-04-03T07:21:17;2.37;;;1.70;;
8656;SDS011;4366;50.764;7.184;2023-04-03T07:26:20;3.57;;;1.37;;
8656;SDS011;4366;50.764;7.184;2023-04-03T07:31:22;2.60;;;1.70;;
8656;SDS011;4366;50.764;7.184;2023-04-03T07:36:24;2.50;;;1.73;;
8656;SDS011;4366;50.764;7.184;2023-04-03T07:41:26;4.00;;;1.40;;
8656;SDS011;4366;50.764;7.184;2023-04-03T07:46:28;2.00;;;1.40;;
8656;SDS011;4366;50.764;7.184;2023-04-03T07:51:30;3.27;;;1.37;;
8656;SDS011;4366;50.764;7.184;2023-04-03T07:56:32;4.03;;;1.80;;
8656;SDS011;4366;50.764;7.184;2023-04-03T08:01:34;1.50;;;1.40;;
8656;SDS011;4366;50.764;7.184;2023-04-03T08:06:37;2.57;;;1.57;;
8656;SDS011;4366;50.764;7.184;2023-04-03T08:11:47;2.27;;;1.80;;
8656;SDS011;4366;50.764;7.184;2023-04-03T08:16:49;3.03;;;1.60;;
8656;SDS011;4366;50.764;7.184;2023-04-03T08:21:50;3.87;;;1.70;;
8656;SDS011;4366;50.764;7.184;2023-04-03T08:26:52;3.07;;;1.53;;
8656;SDS011;4366;50.764;7.184;2023-04-03T08:31:54;1.63;;;1.30;;
8656;SDS011;4366;50.764;7.184;2023-04-03T08:36:55;3.33;;;1.40;;
8656;SDS011;4366;50.764;7.184;2023-04-03T08:41:57;3.37;;;1.70;;
8656;SDS011;4366;50.764;7.184;2023-04-03T08:57:46;4.50;;;1.30;;
8656;SDS011;4366;50.764;7.184;2023-04-03T09:02:51;1.80;;;1.50;;
8656;SDS011;4366;50.764;7.184;2023-04-03T09:18:40;1.57;;;1.23;;
8656;SDS011;4366;50.764;7.184;2023-04-03T09:23:48;1.37;;;1.27;;
8656;SDS011;4366;50.764;7.184;2023-04-03T09:28:54;3.10;;;1.33;;
8656;SDS011;4366;50.764;7.184;2023-04-03T09:33:59;2.00;;;1.80;;
8656;SDS011;4366;50.764;7.184;2023-04-03T09:39:04;1.33;;;1.20;;
8656;SDS011;4366;50.764;7.184;2023-04-03T09:49:38;1.70;;;1.60;;
8656;SDS011;4366;50.764;7.184;2023-04-03T09:54:41;2.57;;;1.47;;
8656;SDS011;4366;50.764;7.184;2023-04-03T09:59:45;1.40;;;1.30;;
8656;SDS011;4366;50.764;7.184;2023-04-03T10:04:50;2.20;;;1.53;;
8656;SDS011;4366;50.764;7.184;2023-04-03T10:15:19;1.30;;;1.30;;
8656;SDS011;4366;50.764;7.184;2023-04-03T10:20:37;1.47;;;1.37;;
8656;SDS011;4366;50.764;7.184;2023-04-03T10:25:43;1.50;;;1.40;;
8656;SDS011;4366;50.764;7.184;2023-04-03T10:36:24;1.80;;;1.70;;
8656;SDS011;4366;50.764;7.184;2023-04-03T10:57:59;1.97;;;1.50;;
8656;SDS011;4366;50.764;7.184;2023-04-03T11:03:09;2.43;;;1.53;;
8656;SDS011;4366;50.764;7.184;2023-04-03T11:08:26;1.27;;;1.27;;
8656;SDS011;4366;50.764;7.184;2023-04-03T11:13:46;1.40;;;1.37;;
8656;SDS011;4366;50.764;7.184;2023-04-03T11:18:57;2.03;;;1.47;;
8656;SDS011;4366;50.764;7.184;2023-04-03T11:24:02;1.80;;;1.70;;
8656;SDS011;4366;50.764;7.184;2023-04-03T11:29:07;1.87;;;1.50;;
8656;SDS011;4366;50.764;7.184;2023-04-03T11:34:26;1.50;;;1.40;;
8656;SDS011;4366;50.764;7.184;2023-04-03T11:39:35;1.33;;;1.33;;
8656;SDS011;4366;50.764;7.184;2023-04-03T11:44:41;1.37;;;1.27;;
8656;SDS011;4366;50.764;7.184;2023-04-03T11:50:44;2.20;;;1.30;;
8656;SDS011;4366;50.764;7.184;2023-04-03T12:05:47;1.23;;;1.23;;
8656;SDS011;4366;50.764;7.184;2023-04-03T12:31:58;1.77;;;1.30;;
8656;SDS011;4366;50.764;7.184;2023-04-03T12:37:14;1.00;;;1.00;;
8656;SDS011;4366;50.764;7.184;2023-04-03T12:48:13;1.30;;;1.20;;
8656;SDS011;4366;50.764;7.184;2023-04-03T12:58:22;1.40;;;1.30;;
8656;SDS011;4366;50.764;7.184;2023-04-03T13:03:28;1.10;;;1.10;;
8656;SDS011;4366;50.764;7.184;2023-04-03T13:08:34;1.53;;;1.43;;
8656;SDS011;4366;50.764;7.184;2023-04-03T13:13:36;1.43;;;1.33;;
8656;SDS011;4366;50.764;7.184;2023-04-03T13:18:40;2.00;;;1.40;;
8656;SDS011;4366;50.764;7.184;2023-04-03T13:23:44;1.30;;;1.30;;
8656;SDS011;4366;50.764;7.184;2023-04-03T13:28:47;1.60;;;1.50;;
8656;SDS011;4366;50.764;7.184;2023-04-03T13:33:57;2.93;;;1.27;;
8656;SDS011;4366;50.764;7.184;2023-04-03T13:44:25;2.40;;;1.30;;
8656;SDS011;4366;50.764;7.184;2023-04-03T13:49:34;1.50;;;1.40;;
8656;SDS011;4366;50.764;7.184;2023-04-03T13:54:46;1.73;;;1.30;;
8656;SDS011;4366;50.764;7.184;2023-04-03T13:59:48;1.63;;;1.47;;
8656;SDS011;4366;50.764;7.184;2023-04-03T14:04:53;1.53;;;1.40;;
8656;SDS011;4366;50.764;7.184;2023-04-03T14:10:01;1.53;;;1.20;;
8656;SDS011;4366;50.764;7.184;2023-04-03T14:15:05;1.50;;;1.40;;
8656;SDS011;4366;50.764;7.184;2023-04-03T14:20:16;1.40;;;1.30;;
8656;SDS011;4366;50.764;7.184;2023-04-03T14:25:20;1.47;;;1.37;;
8656;SDS011;4366;50.764;7.184;2023-04-03T14:30:25;1.27;;;1.27;;
8656;SDS011;4366;50.764;7.184;2023-04-03T14:35:33;1.37;;;1.30;;
8656;SDS011;4366;50.764;7.184;2023-04-03T14:40:35;1.40;;;1.30;;
8656;SDS011;4366;50.764;7.184;2023-04-03T14:45:37;1.97;;;1.53;;
8656;SDS011;4366;50.764;7.184;2023-04-03T14:50:38;2.00;;;1.60;;
8656;SDS011;4366;50.764;7.184;2023-04-03T14:55:49;1.43;;;1.30;;
8656;SDS011;4366;50.764;7.184;2023-04-03T15:00:51;1.60;;;1.50;;
8656;SDS011;4366;50.764;7.184;2023-04-03T15:05:55;1.67;;;1.30;;
8656;SDS011;4366;50.764;7.184;2023-04-03T15:11:03;1.47;;;1.43;;
8656;SDS011;4366;50.764;7.184;2023-04-03T15:16:05;1.30;;;1.30;;
8656;SDS011;4366;50.764;7.184;2023-04-03T15:21:16;1.40;;;1.30;;
8656;SDS011;4366;50.764;7.184;2023-04-03T15:26:18;1.27;;;1.20;;
8656;SDS011;4366;50.764;7.184;2023-04-03T15:31:23;1.60;;;1.50;;
8656;SDS011;4366;50.764;7.184;2023-04-03T15:36:25;1.90;;;1.40;;
8656;SDS011;4366;50.764;7.184;2023-04-03T15:41:35;2.23;;;1.10;;
8656;SDS011;4366;50.764;7.184;2023-04-03T15:46:37;1.80;;;1.30;;
8656;SDS011;4366;50.764;7.184;2023-04-03T15:51:38;1.50;;;1.20;;
8656;SDS011;4366;50.764;7.184;2023-04-03T15:56:40;1.97;;;1.33;;
8656;SDS011;4366;50.764;7.184;2023-04-03T16:01:41;1.43;;;1.33;;
8656;SDS011;4366;50.764;7.184;2023-04-03T16:06:44;1.40;;;1.30;;
8656;SDS011;4366;50.764;7.184;2023-04-03T16:11:45;1.30;;;1.30;;
8656;SDS011;4366;50.764;7.184;2023-04-03T16:16:47;1.50;;;1.27;;
8656;SDS011;4366;50.764;7.184;2023-04-03T16:21:49;1.50;;;1.40;;
8656;SDS011;4366;50.764;7.184;2023-04-03T16:26:51;1.50;;;1.40;;
8656;SDS011;4366;50.764;7.184;2023-04-03T16:31:54;1.47;;;1.20;;
8656;SDS011;4366;50.764;7.184;2023-04-03T16:36:56;1.27;;;1.23;;
8656;SDS011;4366;50.764;7.184;2023-04-03T16:41:57;1.50;;;1.37;;
8656;SDS011;4366;50.764;7.184;2023-04-03T16:46:59;1.37;;;1.27;;
8656;SDS011;4366;50.764;7.184;2023-04-03T16:52:02;1.40;;;1.30;;
8656;SDS011;4366;50.764;7.184;2023-04-03T16:57:05;1.60;;;1.50;;
8656;SDS011;4366;50.764;7.184;2023-04-03T17:02:06;1.40;;;1.30;;
8656;SDS011;4366;50.764;7.184;2023-04-03T17:07:09;1.47;;;1.37;;
8656;SDS011;4366;50.764;7.184;2023-04-03T17:12:10;1.40;;;1.40;;
8656;SDS011;4366;50.764;7.184;2023-04-03T17:17:13;1.30;;;1.30;;
8656;SDS011;4366;50.764;7.184;2023-04-03T17:22:15;1.30;;;1.30;;
8656;SDS011;4366;50.764;7.184;2023-04-03T17:27:17;1.60;;;1.33;;
8656;SDS011;4366;50.764;7.184;2023-04-03T17:32:19;1.50;;;1.40;;
8656;SDS011;4366;50.764;7.184;2023-04-03T17:37:21;1.50;;;1.40;;
8656;SDS011;4366;50.764;7.184;2023-04-03T17:42:22;1.50;;;1.40;;
8656;SDS011;4366;50.764;7.184;2023-04-03T17:47:25;1.63;;;1.53;;
8656;SDS011;4366;50.764;7.184;2023-04-03T17:52:27;1.67;;;1.57;;
8656;SDS011;4366;50.764;7.184;2023-04-03T17:57:29;2.03;;;1.60;;
8656;SDS011;4366;50.764;7.184;2023-04-03T18:02:31;1.50;;;1.40;;
8656;SDS011;4366;50.764;7.184;2023-04-03T18:07:33;1.60;;;1.50;;
8656;SDS011;4366;50.764;7.184;2023-04-03T18:12:35;3.33;;;1.60;;
8656;SDS011;4366;50.764;7.184;2023-04-03T18:17:37;1.60;;;1.50;;
8656;SDS011;4366;50.764;7.184;2023-04-03T18:22:39;3.40;;;3.00;;
8656;SDS011;4366;50.764;7.184;2023-04-03T18:27:41;4.40;;;3.33;;
8656;SDS011;4366;50.764;7.184;2023-04-03T18:32:43;2.00;;;1.90;;
8656;SDS011;4366;50.764;7.184;2023-04-03T18:37:45;3.47;;;2.80;;
8656;SDS011;4366;50.764;7.184;2023-04-03T18:42:47;1.90;;;1.80;;
8656;SDS011;4366;50.764;7.184;2023-04-03T18:47:49;2.67;;;2.20;;
8656;SDS011;4366;50.764;7.184;2023-04-03T18:52:50;2.13;;;1.80;;
8656;SDS011;4366;50.764;7.184;2023-04-03T18:57:52;4.03;;;2.23;;
8656;SDS011;4366;50.764;7.184;2023-04-03T19:02:54;2.10;;;2.00;;
8656;SDS011;4366;50.764;7.184;2023-04-03T19:07:56;2.10;;;2.00;;
8656;SDS011;4366;50.764;7.184;2023-04-03T19:12:58;2.00;;;1.90;;
8656;SDS011;4366;50.764;7.184;2023-04-03T19:17:59;1.93;;;1.80;;
8656;SDS011;4366;50.764;7.184;2023-04-03T19:23:01;2.10;;;1.80;;
8656;SDS011;4366;50.764;7.184;2023-04-03T19:28:03;2.03;;;1.93;;
8656;SDS011;4366;50.764;7.184;2023-04-03T19:33:04;3.43;;;1.93;;
8656;SDS011;4366;50.764;7.184;2023-04-03T19:38:06;2.03;;;1.90;;
8656;SDS011;4366;50.764;7.184;2023-04-03T19:43:09;4.87;;;2.07;;
8656;SDS011;4366;50.764;7.184;2023-04-03T19:48:11;1.90;;;1.80;;
8656;SDS011;4366;50.764;7.184;2023-04-03T19:53:14;2.50;;;2.00;;
8656;SDS011;4366;50.764;7.184;2023-04-03T19:58:19;2.07;;;1.97;;
8656;SDS011;4366;50.764;7.184;2023-04-03T20:03:21;2.13;;;1.90;;
8656;SDS011;4366;50.764;7.184;2023-04-03T20:08:23;4.57;;;3.17;;
8656;SDS011;4366;50.764;7.184;2023-04-03T20:13:28;2.00;;;1.90;;
8656;SDS011;4366;50.764;7.184;2023-04-03T20:18:30;3.43;;;2.20;;
8656;SDS011;4366;50.764;7.184;2023-04-03T20:23:32;2.83;;;1.90;;
8656;SDS011;4366;50.764;7.184;2023-04-03T20:28:34;2.10;;;2.00;;
8656;SDS011;4366;50.764;7.184;2023-04-03T20:33:36;3.47;;;2.07;;
8656;SDS011;4366;50.764;7.184;2023-04-03T20:38:38;2.73;;;2.07;;
8656;SDS011;4366;50.764;7.184;2023-04-03T20:43:43;2.40;;;2.20;;
8656;SDS011;4366;50.764;7.184;2023-04-03T20:48:46;2.10;;;1.90;;
8656;SDS011;4366;50.764;7.184;2023-04-03T20:53:48;3.53;;;2.07;;
8656;SDS011;4366;50.764;7.184;2023-04-03T20:58:50;4.07;;;2.10;;
8656;SDS011;4366;50.764;7.184;2023-04-03T21:04:00;1.97;;;1.87;;
8656;SDS011;4366;50.764;7.184;2023-04-03T21:20:42;3.83;;;3.20;;
8656;SDS011;4366;50.764;7.184;2023-04-03T21:25:47;3.37;;;2.67;;
8656;SDS011;4366;50.764;7.184;2023-04-03T21:30:49;2.60;;;2.40;;
8656;SDS011;4366;50.764;7.184;2023-04-03T21:35:50;2.77;;;2.50;;
8656;SDS011;4366;50.764;7.184;2023-04-03T21:40:58;3.00;;;2.70;;
8656;SDS011;4366;50.764;7.184;2023-04-03T21:46:00;3.83;;;2.77;;
8656;SDS011;4366;50.764;7.184;2023-04-03T21:51:03;4.63;;;3.10;;
8656;SDS011;4366;50.764;7.184;2023-04-03T21:56:05;3.87;;;3.13;;
8656;SDS011;4366;50.764;7.184;2023-04-03T22:01:14;6.47;;;2.67;;
8656;SDS011;4366;50.764;7.184;2023-04-03T22:06:16;3.73;;;2.37;;
8656;SDS011;4366;50.764;7.184;2023-04-03T22:11:18;2.70;;;2.50;;
8656;SDS011;4366;50.764;7.184;2023-04-03T22:16:19;5.80;;;3.30;;
8656;SDS011;4366;50.764;7.184;2023-04-03T22:21:24;4.33;;;2.70;;
8656;SDS011;4366;50.764;7.184;2023-04-03T22:26:25;2.93;;;2.70;;
8656;SDS011;4366;50.764;7.184;2023-04-03T22:31:27;2.90;;;2.70;;
8656;SDS011;4366;50.764;7.184;2023-04-03T22:36:28;2.47;;;2.27;;
8656;SDS011;4366;50.764;7.184;2023-04-03T22:41:30;3.10;;;2.70;;
8656;SDS011;4366;50.764;7.184;2023-04-03T22:46:32;2.60;;;2.40;;
8656;SDS011;4366;50.764;7.184;2023-04-03T22:51:34;10.67;;;2.87;;
8656;SDS011;4366;50.764;7.184;2023-04-03T22:56:35;2.70;;;2.50;;
8656;SDS011;4366;50.764;7.184;2023-04-03T23:01:37;3.23;;;2.77;;
8656;SDS011;4366;50.764;7.184;2023-04-03T23:06:39;2.90;;;2.70;;
8656;SDS011;4366;50.764;7.184;2023-04-03T23:11:42;2.83;;;2.63;;
8656;SDS011;4366;50.764;7.184;2023-04-03T23:16:44;3.53;;;2.87;;
8656;SDS011;4366;50.764;7.184;2023-04-03T23:21:47;4.70;;;3.00;;
8656;SDS011;4366;50.764;7.184;2023-04-03T23:26:48;2.60;;;2.40;;
8656;SDS011;4366;50.764;7.184;2023-04-03T23:31:50;2.90;;;2.70;;
8656;SDS011;4366;50.764;7.184;2023-04-03T23:36:52;2.83;;;2.63;;
8656;SDS011;4366;50.764;7.184;2023-04-03T23:41:53;3.27;;;2.97;;
8656;SDS011;4366;50.764;7.184;2023-04-03T23:46:55;3.10;;;2.90;;
8656;SDS011;4366;50.764;7.184;2023-04-03T23:51:58;4.03;;;2.87;;
